Terminal Aerodrome Forecast
Issued by NWS

Home | Current Version | Previous Version | Graphics & Text | Print | Product List | Glossary On
Versions: 1 2 3 4 5 6 7 8 9 10 11 12 13 14 15 16
000
FTUS43 KPAH 010500
TAFCGI
TAF
KCGI 010520Z 0106/0206 VRB02KT P6SM SCT100
      TEMPO 0108/0112 3SM BR
     FM011500 07005KT P6SM SCT050=

USA.gov is the U.S. government's official web portal to all federal, state and local government web resources and services.